sensor_id;sensor_type;location;lat;lon;timestamp;pressure;altitude;pressure_sealevel;temperature;humidity
34506;BME280;20748;42.632;23.198;2022-07-29T00:00:22;92301.72;;;17.19;94.25
34506;BME280;20748;42.632;23.198;2022-07-29T00:02:54;92312.41;;;17.10;95.17
34506;BME280;20748;42.632;23.198;2022-07-29T00:05:27;92313.25;;;16.89;96.47
34506;BME280;20748;42.632;23.198;2022-07-29T00:07:59;92307.44;;;16.84;97.16
34506;BME280;20748;42.632;23.198;2022-07-29T00:10:32;92311.94;;;16.83;97.27
34506;BME280;20748;42.632;23.198;2022-07-29T00:13:04;92298.41;;;16.60;98.65
34506;BME280;20748;42.632;23.198;2022-07-29T00:15:37;92290.63;;;16.51;99.96
34506;BME280;20748;42.632;23.198;2022-07-29T00:18:10;92285.13;;;16.44;100.00
34506;BME280;20748;42.632;23.198;2022-07-29T00:20:42;92295.34;;;16.58;99.76
34506;BME280;20748;42.632;23.198;2022-07-29T00:23:15;92290.31;;;16.65;98.94
34506;BME280;20748;42.632;23.198;2022-07-29T00:25:47;92302.25;;;16.62;99.41
34506;BME280;20748;42.632;23.198;2022-07-29T00:28:20;92298.66;;;16.80;97.71
34506;BME280;20748;42.632;23.198;2022-07-29T00:30:53;92303.38;;;16.86;96.43
34506;BME280;20748;42.632;23.198;2022-07-29T00:33:25;92303.81;;;16.88;96.15
34506;BME280;20748;42.632;23.198;2022-07-29T00:35:57;92302.63;;;16.86;96.51
34506;BME280;20748;42.632;23.198;2022-07-29T00:38:30;92298.56;;;16.88;96.03
34506;BME280;20748;42.632;23.198;2022-07-29T00:41:02;92302.41;;;16.91;95.80
34506;BME280;20748;42.632;23.198;2022-07-29T00:43:34;92298.56;;;16.88;95.88
34506;BME280;20748;42.632;23.198;2022-07-29T00:46:08;92295.13;;;16.88;96.36
34506;BME280;20748;42.632;23.198;2022-07-29T00:48:40;92289.66;;;16.56;97.92
34506;BME280;20748;42.632;23.198;2022-07-29T00:51:13;92289.41;;;16.48;99.16
34506;BME280;20748;42.632;23.198;2022-07-29T00:53:46;92288.22;;;16.46;99.83
34506;BME280;20748;42.632;23.198;2022-07-29T00:56:22;92284.59;;;16.50;98.64
34506;BME280;20748;42.632;23.198;2022-07-29T00:58:56;92279.22;;;16.47;99.08
34506;BME280;20748;42.632;23.198;2022-07-29T01:01:29;92272.63;;;16.41;99.40
34506;BME280;20748;42.632;23.198;2022-07-29T01:04:02;92270.13;;;16.57;98.56
34506;BME280;20748;42.632;23.198;2022-07-29T01:06:35;92264.06;;;16.69;97.70
34506;BME280;20748;42.632;23.198;2022-07-29T01:09:07;92260.44;;;16.48;97.81
34506;BME280;20748;42.632;23.198;2022-07-29T01:11:42;92262.44;;;16.51;97.72
34506;BME280;20748;42.632;23.198;2022-07-29T01:14:15;92251.09;;;16.38;98.71
34506;BME280;20748;42.632;23.198;2022-07-29T01:16:53;92254.19;;;16.41;98.79
34506;BME280;20748;42.632;23.198;2022-07-29T01:19:50;92250.47;;;16.42;98.60
34506;BME280;20748;42.632;23.198;2022-07-29T01:22:49;92264.06;;;16.44;98.70
34506;BME280;20748;42.632;23.198;2022-07-29T01:25:45;92264.63;;;16.49;97.89
34506;BME280;20748;42.632;23.198;2022-07-29T01:29:02;92254.41;;;16.60;97.78
34506;BME280;20748;42.632;23.198;2022-07-29T01:31:43;92262.53;;;16.55;97.57
34506;BME280;20748;42.632;23.198;2022-07-29T01:34:38;92257.03;;;16.48;98.01
34506;BME280;20748;42.632;23.198;2022-07-29T01:37:18;92255.81;;;16.20;99.85
34506;BME280;20748;42.632;23.198;2022-07-29T01:39:54;92247.59;;;16.34;99.14
34506;BME280;20748;42.632;23.198;2022-07-29T01:42:30;92250.66;;;16.24;99.74
34506;BME280;20748;42.632;23.198;2022-07-29T01:45:08;92249.75;;;16.07;100.00
34506;BME280;20748;42.632;23.198;2022-07-29T01:47:46;92250.72;;;16.03;100.00
34506;BME280;20748;42.632;23.198;2022-07-29T01:50:20;92247.44;;;16.06;100.00
34506;BME280;20748;42.632;23.198;2022-07-29T01:52:58;92246.69;;;16.05;100.00
34506;BME280;20748;42.632;23.198;2022-07-29T01:55:34;92249.00;;;16.19;100.00
34506;BME280;20748;42.632;23.198;2022-07-29T01:58:07;92240.34;;;16.31;99.92
34506;BME280;20748;42.632;23.198;2022-07-29T02:00:42;92247.72;;;16.26;99.93
34506;BME280;20748;42.632;23.198;2022-07-29T02:03:18;92247.25;;;16.23;99.86
34506;BME280;20748;42.632;23.198;2022-07-29T02:05:51;92251.88;;;16.39;99.33
34506;BME280;20748;42.632;23.198;2022-07-29T02:08:25;92242.78;;;16.36;99.34
34506;BME280;20748;42.632;23.198;2022-07-29T02:10:59;92237.72;;;16.44;98.64
34506;BME280;20748;42.632;23.198;2022-07-29T02:13:34;92234.00;;;16.45;98.03
34506;BME280;20748;42.632;23.198;2022-07-29T02:16:09;92229.13;;;16.22;99.72
34506;BME280;20748;42.632;23.198;2022-07-29T02:18:43;92222.00;;;16.10;100.00
34506;BME280;20748;42.632;23.198;2022-07-29T02:21:23;92222.22;;;16.05;100.00
34506;BME280;20748;42.632;23.198;2022-07-29T02:23:58;92223.53;;;16.11;100.00
34506;BME280;20748;42.632;23.198;2022-07-29T02:26:32;92221.25;;;16.22;99.52
34506;BME280;20748;42.632;23.198;2022-07-29T02:29:06;92221.91;;;16.31;99.11
34506;BME280;20748;42.632;23.198;2022-07-29T02:31:44;92214.25;;;16.38;99.24
34506;BME280;20748;42.632;23.198;2022-07-29T02:34:20;92215.22;;;16.21;99.42
34506;BME280;20748;42.632;23.198;2022-07-29T02:36:54;92211.16;;;16.12;100.00
34506;BME280;20748;42.632;23.198;2022-07-29T02:39:28;92210.28;;;16.20;99.94
34506;BME280;20748;42.632;23.198;2022-07-29T02:42:05;92205.25;;;16.27;99.70
34506;BME280;20748;42.632;23.198;2022-07-29T02:44:39;92204.91;;;16.29;99.50
34506;BME280;20748;42.632;23.198;2022-07-29T02:47:16;92200.84;;;16.31;98.87
34506;BME280;20748;42.632;23.198;2022-07-29T02:49:55;92197.22;;;16.36;99.34
34506;BME280;20748;42.632;23.198;2022-07-29T02:52:36;92202.28;;;16.41;98.23
34506;BME280;20748;42.632;23.198;2022-07-29T02:55:15;92208.22;;;16.38;98.21
34506;BME280;20748;42.632;23.198;2022-07-29T02:57:51;92212.50;;;16.30;98.13
34506;BME280;20748;42.632;23.198;2022-07-29T03:00:28;92217.53;;;16.35;97.54
34506;BME280;20748;42.632;23.198;2022-07-29T03:03:04;92211.81;;;16.33;97.67
34506;BME280;20748;42.632;23.198;2022-07-29T03:05:40;92210.94;;;16.17;97.98
34506;BME280;20748;42.632;23.198;2022-07-29T03:08:12;92203.00;;;16.04;99.24
34506;BME280;20748;42.632;23.198;2022-07-29T03:10:47;92202.22;;;15.91;99.55
34506;BME280;20748;42.632;23.198;2022-07-29T03:13:20;92193.63;;;15.82;99.63
34506;BME280;20748;42.632;23.198;2022-07-29T03:15:53;92207.97;;;15.72;100.00
34506;BME280;20748;42.632;23.198;2022-07-29T03:18:28;92203.84;;;15.83;100.00
34506;BME280;20748;42.632;23.198;2022-07-29T03:21:01;92208.06;;;15.97;100.00
34506;BME280;20748;42.632;23.198;2022-07-29T03:23:33;92215.31;;;16.00;99.81
34506;BME280;20748;42.632;23.198;2022-07-29T03:26:08;92220.78;;;16.07;98.78
34506;BME280;20748;42.632;23.198;2022-07-29T03:28:40;92230.63;;;15.98;99.17
34506;BME280;20748;42.632;23.198;2022-07-29T03:31:13;92225.16;;;16.03;98.96
34506;BME280;20748;42.632;23.198;2022-07-29T03:33:46;92226.34;;;15.93;99.00
34506;BME280;20748;42.632;23.198;2022-07-29T03:36:19;92229.63;;;15.90;99.15
34506;BME280;20748;42.632;23.198;2022-07-29T03:38:52;92231.91;;;15.92;99.52
34506;BME280;20748;42.632;23.198;2022-07-29T03:41:25;92234.06;;;15.77;100.00
34506;BME280;20748;42.632;23.198;2022-07-29T03:43:58;92234.53;;;15.92;99.74
34506;BME280;20748;42.632;23.198;2022-07-29T03:46:32;92228.56;;;16.04;98.59
34506;BME280;20748;42.632;23.198;2022-07-29T03:49:08;92228.47;;;16.00;99.15
34506;BME280;20748;42.632;23.198;2022-07-29T03:51:42;92225.38;;;15.98;99.40
34506;BME280;20748;42.632;23.198;2022-07-29T03:54:15;92226.38;;;16.06;99.00
34506;BME280;20748;42.632;23.198;2022-07-29T03:56:49;92233.94;;;16.07;98.79
34506;BME280;20748;42.632;23.198;2022-07-29T03:59:24;92235.78;;;15.94;99.27
34506;BME280;20748;42.632;23.198;2022-07-29T04:01:58;92232.66;;;15.80;100.00
34506;BME280;20748;42.632;23.198;2022-07-29T04:04:33;92231.97;;;15.70;100.00
34506;BME280;20748;42.632;23.198;2022-07-29T04:07:06;92229.13;;;15.76;100.00
34506;BME280;20748;42.632;23.198;2022-07-29T04:09:38;92235.69;;;15.69;100.00
34506;BME280;20748;42.632;23.198;2022-07-29T04:12:10;92230.53;;;15.73;100.00
34506;BME280;20748;42.632;23.198;2022-07-29T04:14:43;92220.25;;;15.80;100.00
34506;BME280;20748;42.632;23.198;2022-07-29T04:17:15;92238.41;;;15.94;100.00
34506;BME280;20748;42.632;23.198;2022-07-29T04:19:49;92231.09;;;16.00;100.00
34506;BME280;20748;42.632;23.198;2022-07-29T04:22:21;92228.56;;;16.04;100.00
34506;BME280;20748;42.632;23.198;2022-07-29T04:24:54;92230.00;;;16.14;98.86
34506;BME280;20748;42.632;23.198;2022-07-29T04:27:31;92233.63;;;16.09;99.25
34506;BME280;20748;42.632;23.198;2022-07-29T04:30:05;92237.56;;;16.03;100.00
34506;BME280;20748;42.632;23.198;2022-07-29T04:32:37;92242.16;;;16.06;100.00
34506;BME280;20748;42.632;23.198;2022-07-29T04:35:10;92247.34;;;16.15;100.00
34506;BME280;20748;42.632;23.198;2022-07-29T04:37:43;92255.81;;;16.20;100.00
34506;BME280;20748;42.632;23.198;2022-07-29T04:40:15;92248.22;;;16.06;100.00
34506;BME280;20748;42.632;23.198;2022-07-29T04:42:48;92248.88;;;16.16;100.00
34506;BME280;20748;42.632;23.198;2022-07-29T04:45:21;92250.78;;;16.28;100.00
34506;BME280;20748;42.632;23.198;2022-07-29T04:47:54;92255.94;;;16.36;100.00
34506;BME280;20748;42.632;23.198;2022-07-29T04:50:27;92256.81;;;16.41;100.00
34506;BME280;20748;42.632;23.198;2022-07-29T04:53:00;92258.78;;;16.44;100.00
34506;BME280;20748;42.632;23.198;2022-07-29T04:55:32;92253.09;;;16.42;100.00
34506;BME280;20748;42.632;23.198;2022-07-29T04:58:05;92260.53;;;16.40;100.00
34506;BME280;20748;42.632;23.198;2022-07-29T05:00:39;92256.72;;;16.37;100.00
34506;BME280;20748;42.632;23.198;2022-07-29T05:03:11;92254.50;;;16.39;100.00
34506;BME280;20748;42.632;23.198;2022-07-29T05:05:45;92261.88;;;16.46;100.00
34506;BME280;20748;42.632;23.198;2022-07-29T05:08:17;92263.09;;;16.61;100.00
34506;BME280;20748;42.632;23.198;2022-07-29T05:10:50;92258.59;;;16.61;100.00
34506;BME280;20748;42.632;23.198;2022-07-29T05:13:22;92256.84;;;16.78;100.00
34506;BME280;20748;42.632;23.198;2022-07-29T05:15:55;92258.47;;;16.95;99.61
34506;BME280;20748;42.632;23.198;2022-07-29T05:18:29;92258.91;;;17.10;98.13
34506;BME280;20748;42.632;23.198;2022-07-29T05:21:03;92261.22;;;17.24;97.51
34506;BME280;20748;42.632;23.198;2022-07-29T05:23:35;92260.84;;;17.38;96.64
34506;BME280;20748;42.632;23.198;2022-07-29T05:26:07;92259.84;;;17.42;95.95
34506;BME280;20748;42.632;23.198;2022-07-29T05:28:40;92257.41;;;17.50;94.01
34506;BME280;20748;42.632;23.198;2022-07-29T05:31:12;92252.63;;;17.68;94.31
34506;BME280;20748;42.632;23.198;2022-07-29T05:33:46;92256.75;;;17.81;94.49
34506;BME280;20748;42.632;23.198;2022-07-29T05:36:19;92254.59;;;17.87;92.47
34506;BME280;20748;42.632;23.198;2022-07-29T05:38:51;92259.06;;;17.99;92.01
34506;BME280;20748;42.632;23.198;2022-07-29T05:41:24;92254.88;;;18.10;90.85
34506;BME280;20748;42.632;23.198;2022-07-29T05:43:56;92262.97;;;18.34;91.25
34506;BME280;20748;42.632;23.198;2022-07-29T05:46:29;92259.34;;;18.55;91.15
34506;BME280;20748;42.632;23.198;2022-07-29T05:49:03;92266.56;;;18.74;90.75
34506;BME280;20748;42.632;23.198;2022-07-29T05:51:36;92264.16;;;18.85;89.33
34506;BME280;20748;42.632;23.198;2022-07-29T05:54:09;92269.53;;;19.04;88.65
34506;BME280;20748;42.632;23.198;2022-07-29T05:56:42;92264.72;;;19.26;87.85
34506;BME280;20748;42.632;23.198;2022-07-29T05:59:14;92272.94;;;19.41;87.55
34506;BME280;20748;42.632;23.198;2022-07-29T06:01:49;92268.22;;;19.50;87.62
34506;BME280;20748;42.632;23.198;2022-07-29T06:04:22;92271.06;;;19.61;88.30
34506;BME280;20748;42.632;23.198;2022-07-29T06:06:55;92270.88;;;19.70;89.47
34506;BME280;20748;42.632;23.198;2022-07-29T06:09:28;92273.81;;;19.84;90.89
34506;BME280;20748;42.632;23.198;2022-07-29T06:12:01;92264.22;;;19.96;90.36
34506;BME280;20748;42.632;23.198;2022-07-29T06:14:34;92267.66;;;20.00;90.02
34506;BME280;20748;42.632;23.198;2022-07-29T06:17:06;92263.53;;;20.22;90.35
34506;BME280;20748;42.632;23.198;2022-07-29T06:19:39;92273.47;;;20.29;89.06
34506;BME280;20748;42.632;23.198;2022-07-29T06:22:14;92259.53;;;20.32;88.77
34506;BME280;20748;42.632;23.198;2022-07-29T06:24:47;92282.44;;;20.44;87.46
34506;BME280;20748;42.632;23.198;2022-07-29T06:27:19;92279.31;;;20.62;87.33
34506;BME280;20748;42.632;23.198;2022-07-29T06:29:52;92276.81;;;20.69;85.39
34506;BME280;20748;42.632;23.198;2022-07-29T06:32:24;92280.00;;;20.82;85.87
34506;BME280;20748;42.632;23.198;2022-07-29T06:34:59;92275.72;;;20.97;84.42
34506;BME280;20748;42.632;23.198;2022-07-29T06:37:52;92273.00;;;21.17;84.94
34506;BME280;20748;42.632;23.198;2022-07-29T06:40:29;92277.31;;;21.29;83.54
34506;BME280;20748;42.632;23.198;2022-07-29T06:43:20;92271.56;;;21.54;83.03
34506;BME280;20748;42.632;23.198;2022-07-29T06:45:54;92271.34;;;21.66;82.22
34506;BME280;20748;42.632;23.198;2022-07-29T06:48:27;92269.97;;;21.76;80.70
34506;BME280;20748;42.632;23.198;2022-07-29T06:51:00;92267.75;;;21.82;80.09
34506;BME280;20748;42.632;23.198;2022-07-29T06:53:34;92275.88;;;21.96;79.15
34506;BME280;20748;42.632;23.198;2022-07-29T06:56:07;92272.38;;;21.89;78.55
34506;BME280;20748;42.632;23.198;2022-07-29T06:58:40;92274.50;;;22.10;78.81
34506;BME280;20748;42.632;23.198;2022-07-29T07:01:12;92278.03;;;22.21;77.72
34506;BME280;20748;42.632;23.198;2022-07-29T07:03:45;92273.28;;;22.38;77.25
34506;BME280;20748;42.632;23.198;2022-07-29T07:06:17;92272.16;;;22.43;76.45
34506;BME280;20748;42.632;23.198;2022-07-29T07:08:50;92272.38;;;22.64;76.75
34506;BME280;20748;42.632;23.198;2022-07-29T07:11:23;92276.78;;;22.91;75.84
34506;BME280;20748;42.632;23.198;2022-07-29T07:13:55;92281.81;;;23.03;75.59
34506;BME280;20748;42.632;23.198;2022-07-29T07:16:34;92273.16;;;23.17;73.49
34506;BME280;20748;42.632;23.198;2022-07-29T07:19:07;92270.59;;;23.32;72.72
34506;BME280;20748;42.632;23.198;2022-07-29T07:21:39;92277.09;;;23.42;71.95
34506;BME280;20748;42.632;23.198;2022-07-29T07:24:12;92277.22;;;23.60;71.89
34506;BME280;20748;42.632;23.198;2022-07-29T07:26:45;92274.59;;;23.74;70.93
34506;BME280;20748;42.632;23.198;2022-07-29T07:29:18;92274.69;;;24.00;70.82
34506;BME280;20748;42.632;23.198;2022-07-29T07:31:50;92272.03;;;24.00;69.92
34506;BME280;20748;42.632;23.198;2022-07-29T07:34:23;92279.34;;;24.14;69.57
34506;BME280;20748;42.632;23.198;2022-07-29T07:37:01;92274.06;;;24.43;68.44
34506;BME280;20748;42.632;23.198;2022-07-29T07:39:34;92283.22;;;24.64;67.39
34506;BME280;20748;42.632;23.198;2022-07-29T07:42:13;92277.50;;;24.65;67.08
34506;BME280;20748;42.632;23.198;2022-07-29T07:44:46;92279.81;;;24.60;65.81
34506;BME280;20748;42.632;23.198;2022-07-29T07:47:40;92277.91;;;24.75;67.54
34506;BME280;20748;42.632;23.198;2022-07-29T07:50:12;92283.25;;;24.93;65.64
34506;BME280;20748;42.632;23.198;2022-07-29T07:52:51;92276.78;;;25.01;65.75
34506;BME280;20748;42.632;23.198;2022-07-29T07:55:25;92281.38;;;25.12;66.33
34506;BME280;20748;42.632;23.198;2022-07-29T07:57:57;92278.31;;;25.24;64.55
34506;BME280;20748;42.632;23.198;2022-07-29T08:00:30;92279.03;;;25.39;64.57
34506;BME280;20748;42.632;23.198;2022-07-29T08:03:04;92276.31;;;25.61;65.16
34506;BME280;20748;42.632;23.198;2022-07-29T08:05:47;92272.50;;;25.66;64.73
34506;BME280;20748;42.632;23.198;2022-07-29T08:08:22;92278.59;;;25.66;64.71
34506;BME280;20748;42.632;23.198;2022-07-29T08:10:55;92281.25;;;25.77;63.51
34506;BME280;20748;42.632;23.198;2022-07-29T08:13:28;92282.72;;;25.89;62.94
34506;BME280;20748;42.632;23.198;2022-07-29T08:16:01;92283.88;;;25.84;62.73
34506;BME280;20748;42.632;23.198;2022-07-29T08:18:44;92283.81;;;26.06;62.51
34506;BME280;20748;42.632;23.198;2022-07-29T08:21:17;92286.06;;;26.08;63.31
34506;BME280;20748;42.632;23.198;2022-07-29T08:23:50;92282.22;;;26.16;60.60
34506;BME280;20748;42.632;23.198;2022-07-29T08:26:33;92292.53;;;26.14;62.51
34506;BME280;20748;42.632;23.198;2022-07-29T08:29:06;92287.50;;;26.34;60.28
34506;BME280;20748;42.632;23.198;2022-07-29T08:31:39;92285.50;;;26.49;60.93
34506;BME280;20748;42.632;23.198;2022-07-29T08:34:12;92288.50;;;26.59;59.28
34506;BME280;20748;42.632;23.198;2022-07-29T08:36:44;92276.91;;;26.76;59.92
34506;BME280;20748;42.632;23.198;2022-07-29T08:39:22;92284.44;;;26.96;57.25
34506;BME280;20748;42.632;23.198;2022-07-29T08:41:55;92282.34;;;27.18;56.81
34506;BME280;20748;42.632;23.198;2022-07-29T08:44:29;92283.00;;;27.26;55.48
34506;BME280;20748;42.632;23.198;2022-07-29T08:47:03;92277.28;;;27.28;53.93
34506;BME280;20748;42.632;23.198;2022-07-29T08:49:37;92277.28;;;27.28;55.52
34506;BME280;20748;42.632;23.198;2022-07-29T08:52:10;92267.88;;;27.51;55.78
34506;BME280;20748;42.632;23.198;2022-07-29T08:54:43;92275.50;;;27.52;53.55
34506;BME280;20748;42.632;23.198;2022-07-29T08:57:17;92268.91;;;27.64;54.57
34506;BME280;20748;42.632;23.198;2022-07-29T08:59:52;92261.16;;;27.73;54.11
34506;BME280;20748;42.632;23.198;2022-07-29T09:02:29;92264.81;;;27.87;52.94
34506;BME280;20748;42.632;23.198;2022-07-29T09:05:06;92269.78;;;27.88;50.67
34506;BME280;20748;42.632;23.198;2022-07-29T09:07:40;92267.63;;;28.07;52.66
34506;BME280;20748;42.632;23.198;2022-07-29T09:10:14;92264.91;;;28.11;51.93
34506;BME280;20748;42.632;23.198;2022-07-29T09:12:47;92261.91;;;28.36;52.18
34506;BME280;20748;42.632;23.198;2022-07-29T09:15:20;92267.34;;;28.33;50.65
34506;BME280;20748;42.632;23.198;2022-07-29T09:17:53;92265.31;;;28.40;51.79
34506;BME280;20748;42.632;23.198;2022-07-29T09:20:27;92267.03;;;28.54;50.30
34506;BME280;20748;42.632;23.198;2022-07-29T09:23:20;92262.75;;;28.85;48.77
34506;BME280;20748;42.632;23.198;2022-07-29T09:26:05;92262.41;;;29.06;47.56
34506;BME280;20748;42.632;23.198;2022-07-29T09:28:41;92252.19;;;28.98;48.83
34506;BME280;20748;42.632;23.198;2022-07-29T09:31:14;92265.16;;;29.03;49.49
34506;BME280;20748;42.632;23.198;2022-07-29T09:33:47;92260.25;;;29.21;47.56
34506;BME280;20748;42.632;23.198;2022-07-29T09:36:19;92259.72;;;29.30;47.17
34506;BME280;20748;42.632;23.198;2022-07-29T09:38:57;92267.13;;;29.46;49.29
34506;BME280;20748;42.632;23.198;2022-07-29T09:41:44;92268.69;;;29.68;47.15
34506;BME280;20748;42.632;23.198;2022-07-29T09:44:18;92256.59;;;29.76;44.97
34506;BME280;20748;42.632;23.198;2022-07-29T09:46:57;92265.66;;;29.42;45.82
34506;BME280;20748;42.632;23.198;2022-07-29T09:49:31;92262.19;;;29.65;46.17
34506;BME280;20748;42.632;23.198;2022-07-29T09:52:05;92258.03;;;29.81;45.47
34506;BME280;20748;42.632;23.198;2022-07-29T09:55:05;92244.19;;;30.02;45.04
34506;BME280;20748;42.632;23.198;2022-07-29T09:57:37;92256.28;;;30.14;43.77
34506;BME280;20748;42.632;23.198;2022-07-29T10:00:12;92253.94;;;30.33;44.56
34506;BME280;20748;42.632;23.198;2022-07-29T10:02:46;92248.59;;;30.13;43.78
34506;BME280;20748;42.632;23.198;2022-07-29T10:05:20;92243.88;;;30.54;43.28
34506;BME280;20748;42.632;23.198;2022-07-29T10:07:55;92238.84;;;30.73;42.68
34506;BME280;20748;42.632;23.198;2022-07-29T10:10:30;92235.63;;;31.11;41.55
34506;BME280;20748;42.632;23.198;2022-07-29T10:13:05;92237.06;;;31.32;42.25
34506;BME280;20748;42.632;23.198;2022-07-29T10:15:45;92237.00;;;30.86;40.70
34506;BME280;20748;42.632;23.198;2022-07-29T10:18:18;92236.56;;;31.04;43.62
34506;BME280;20748;42.632;23.198;2022-07-29T10:20:51;92235.13;;;31.16;41.65
34506;BME280;20748;42.632;23.198;2022-07-29T10:23:25;92234.09;;;31.27;42.00
34506;BME280;20748;42.632;23.198;2022-07-29T10:25:58;92223.19;;;31.01;41.82
34506;BME280;20748;42.632;23.198;2022-07-29T10:28:31;92215.69;;;31.08;40.59
34506;BME280;20748;42.632;23.198;2022-07-29T10:31:06;92221.06;;;31.25;40.47
34506;BME280;20748;42.632;23.198;2022-07-29T10:33:51;92217.16;;;31.43;40.81
34506;BME280;20748;42.632;23.198;2022-07-29T10:36:38;92210.22;;;31.71;39.47
34506;BME280;20748;42.632;23.198;2022-07-29T10:39:23;92211.94;;;31.95;38.80
34506;BME280;20748;42.632;23.198;2022-07-29T10:42:18;92210.22;;;32.40;38.55
34506;BME280;20748;42.632;23.198;2022-07-29T10:45:06;92209.91;;;32.64;39.73
34506;BME280;20748;42.632;23.198;2022-07-29T10:47:40;92207.75;;;32.33;38.20
34506;BME280;20748;42.632;23.198;2022-07-29T10:50:14;92207.31;;;32.21;38.90
34506;BME280;20748;42.632;23.198;2022-07-29T10:52:53;92200.38;;;32.33;38.34
34506;BME280;20748;42.632;23.198;2022-07-29T10:55:33;92197.34;;;32.05;39.02
34506;BME280;20748;42.632;23.198;2022-07-29T10:58:12;92190.34;;;32.21;39.06
34506;BME280;20748;42.632;23.198;2022-07-29T11:00:46;92197.03;;;32.29;38.33
34506;BME280;20748;42.632;23.198;2022-07-29T11:03:43;92194.88;;;32.37;37.96
34506;BME280;20748;42.632;23.198;2022-07-29T11:06:23;92185.72;;;32.47;37.12
34506;BME280;20748;42.632;23.198;2022-07-29T11:09:17;92189.81;;;32.39;37.11
34506;BME280;20748;42.632;23.198;2022-07-29T11:11:52;92178.88;;;32.68;37.85
34506;BME280;20748;42.632;23.198;2022-07-29T11:14:55;92187.97;;;32.36;37.06
34506;BME280;20748;42.632;23.198;2022-07-29T11:17:28;92186.34;;;31.99;37.37
34506;BME280;20748;42.632;23.198;2022-07-29T11:20:39;92180.41;;;32.05;39.67
34506;BME280;20748;42.632;23.198;2022-07-29T11:23:25;92183.66;;;31.99;37.42
34506;BME280;20748;42.632;23.198;2022-07-29T11:26:17;92176.09;;;31.94;37.87
34506;BME280;20748;42.632;23.198;2022-07-29T11:29:00;92174.31;;;31.74;37.56
34506;BME280;20748;42.632;23.198;2022-07-29T11:31:37;92180.91;;;31.73;37.15
34506;BME280;20748;42.632;23.198;2022-07-29T11:34:18;92171.41;;;31.82;36.34
34506;BME280;20748;42.632;23.198;2022-07-29T11:37:23;92176.84;;;32.34;39.26
34506;BME280;20748;42.632;23.198;2022-07-29T11:40:16;92168.75;;;32.60;36.14
34506;BME280;20748;42.632;23.198;2022-07-29T11:42:51;92170.53;;;32.89;37.74
34506;BME280;20748;42.632;23.198;2022-07-29T11:45:26;92168.13;;;33.26;36.27
34506;BME280;20748;42.632;23.198;2022-07-29T11:48:17;92170.91;;;33.35;35.16
34506;BME280;20748;42.632;23.198;2022-07-29T11:51:09;92162.69;;;33.39;35.44
34506;BME280;20748;42.632;23.198;2022-07-29T11:53:46;92164.06;;;33.44;35.00
34506;BME280;20748;42.632;23.198;2022-07-29T11:56:25;92162.56;;;33.65;35.33
34506;BME280;20748;42.632;23.198;2022-07-29T11:59:06;92163.19;;;33.69;36.25
34506;BME280;20748;42.632;23.198;2022-07-29T12:01:51;92155.38;;;33.71;34.13
34506;BME280;20748;42.632;23.198;2022-07-29T12:04:51;92158.94;;;33.91;34.22
34506;BME280;20748;42.632;23.198;2022-07-29T12:07:26;92154.44;;;34.19;32.71
34506;BME280;20748;42.632;23.198;2022-07-29T12:10:08;92149.97;;;33.49;33.66
34506;BME280;20748;42.632;23.198;2022-07-29T12:12:51;92153.19;;;33.57;34.08
34506;BME280;20748;42.632;23.198;2022-07-29T12:15:24;92147.84;;;33.98;33.81
34506;BME280;20748;42.632;23.198;2022-07-29T12:18:18;92147.38;;;34.31;32.75
34506;BME280;20748;42.632;23.198;2022-07-29T12:21:00;92150.28;;;34.37;33.30
34506;BME280;20748;42.632;23.198;2022-07-29T12:23:35;92153.66;;;34.60;34.27
34506;BME280;20748;42.632;23.198;2022-07-29T12:26:08;92149.50;;;34.36;32.09
34506;BME280;20748;42.632;23.198;2022-07-29T12:28:53;92152.38;;;34.01;34.80
34506;BME280;20748;42.632;23.198;2022-07-29T12:31:27;92147.53;;;33.96;35.14
34506;BME280;20748;42.632;23.198;2022-07-29T12:34:16;92135.63;;;33.39;35.76
34506;BME280;20748;42.632;23.198;2022-07-29T12:36:49;92132.69;;;33.69;35.06
34506;BME280;20748;42.632;23.198;2022-07-29T12:39:22;92135.63;;;33.61;34.54
34506;BME280;20748;42.632;23.198;2022-07-29T12:41:55;92140.34;;;33.70;34.59
34506;BME280;20748;42.632;23.198;2022-07-29T12:44:46;92138.34;;;33.61;34.81
34506;BME280;20748;42.632;23.198;2022-07-29T12:47:20;92139.34;;;33.32;35.61
34506;BME280;20748;42.632;23.198;2022-07-29T12:50:08;92141.69;;;33.66;34.97
34506;BME280;20748;42.632;23.198;2022-07-29T12:52:40;92140.09;;;33.78;34.86
34506;BME280;20748;42.632;23.198;2022-07-29T12:55:13;92131.84;;;33.81;32.84
34506;BME280;20748;42.632;23.198;2022-07-29T12:57:47;92128.28;;;33.94;33.67
34506;BME280;20748;42.632;23.198;2022-07-29T13:00:22;92135.63;;;33.84;33.57
34506;BME280;20748;42.632;23.198;2022-07-29T13:02:57;92121.06;;;33.59;33.68
34506;BME280;20748;42.632;23.198;2022-07-29T13:05:39;92117.28;;;33.56;33.98
34506;BME280;20748;42.632;23.198;2022-07-29T13:08:16;92111.03;;;33.46;34.59
34506;BME280;20748;42.632;23.198;2022-07-29T13:10:53;92123.97;;;33.42;33.41
34506;BME280;20748;42.632;23.198;2022-07-29T13:13:26;92115.53;;;33.40;32.77
34506;BME280;20748;42.632;23.198;2022-07-29T13:16:06;92120.16;;;33.17;33.85
34506;BME280;20748;42.632;23.198;2022-07-29T13:18:39;92115.31;;;33.12;33.67
34506;BME280;20748;42.632;23.198;2022-07-29T13:21:14;92114.03;;;33.17;33.54
34506;BME280;20748;42.632;23.198;2022-07-29T13:23:47;92107.59;;;33.01;33.88
34506;BME280;20748;42.632;23.198;2022-07-29T13:26:20;92102.97;;;33.02;32.73
34506;BME280;20748;42.632;23.198;2022-07-29T13:28:53;92100.72;;;32.87;32.94
34506;BME280;20748;42.632;23.198;2022-07-29T13:31:26;92104.09;;;32.78;34.17
34506;BME280;20748;42.632;23.198;2022-07-29T13:33:58;92105.09;;;32.72;35.01